Time;durP1;ratioP1;P1;durP2;ratioP2;P2;SDS_P1;SDS_P2;PMS_P1;PMS_P2;Temp;Humidity;BMP_temperature;BMP_pressure;BME280_temperature;BME280_humidity;BME280_pressure;Samples;Min_cycle;Max_cycle;Signal;HPM_P1;HPM_P2
2022/04/07 00:01:25;;;;;;;0.20;0.20;;;;;;;10.22;100.00;98633.00;5021098;28;20199;-72
2022/04/07 00:03:53;;;;;;;0.10;0.10;;;;;;;10.16;100.00;98641.00;5026590;28;20243;-71
2022/04/07 00:06:21;;;;;;;0.10;0.10;;;;;;;10.27;100.00;98642.59;5013301;28;20203;-72
2022/04/07 00:08:50;;;;;;;0.10;0.10;;;;;;;10.14;100.00;98616.41;5016746;28;20231;-71
2022/04/07 00:11:18;;;;;;;0.10;0.10;;;;;;;10.13;100.00;98619.94;5002435;28;20219;-72
2022/04/07 00:13:46;;;;;;;0.20;0.20;;;;;;;10.11;100.00;98619.09;5026065;28;20227;-72
2022/04/07 00:16:14;;;;;;;0.10;0.10;;;;;;;10.17;100.00;98608.41;5017042;28;20241;-72
2022/04/07 00:18:43;;;;;;;0.20;0.20;;;;;;;10.19;100.00;98604.84;5014554;28;20552;-72
2022/04/07 00:21:12;;;;;;;0.10;0.10;;;;;;;10.21;100.00;98595.16;5014155;28;20684;-72
2022/04/07 00:23:42;;;;;;;0.20;0.20;;;;;;;10.13;100.00;98596.16;5026579;28;20234;-72
2022/04/07 00:26:10;;;;;;;0.15;0.15;;;;;;;10.08;100.00;98592.75;5019443;28;20209;-72
2022/04/07 00:28:38;;;;;;;0.10;0.10;;;;;;;9.98;100.00;98586.75;5026526;28;20643;-72
2022/04/07 00:31:06;;;;;;;0.20;0.20;;;;;;;10.07;100.00;98602.44;5021999;28;20207;-72
2022/04/07 00:33:34;;;;;;;0.20;0.20;;;;;;;10.00;100.00;98613.13;5020448;28;20206;-72
2022/04/07 00:36:04;;;;;;;0.20;0.20;;;;;;;9.92;100.00;98594.78;5019884;28;20204;-72
2022/04/07 00:38:32;;;;;;;0.10;0.10;;;;;;;10.05;100.00;98590.16;5018870;28;20204;-72
2022/04/07 00:41:00;;;;;;;0.10;0.10;;;;;;;10.12;100.00;98605.84;5021109;28;20211;-72
2022/04/07 00:43:30;;;;;;;0.10;0.10;;;10.00;99.90;;;10.02;100.00;98601.66;5004682;28;20218;-72
2022/04/07 00:45:59;;;;;;;0.10;0.10;;;10.00;99.90;;;10.08;100.00;98600.66;5021412;28;20216;-72
2022/04/07 00:48:28;;;;;;;0.10;0.10;;;;;;;9.94;100.00;98601.78;5006392;28;20204;-72
2022/04/07 00:50:57;;;;;;;0.10;0.10;;;9.90;99.90;;;9.89;100.00;98594.84;5016126;28;20239;-72
2022/04/07 00:53:26;;;;;;;0.17;0.17;;;9.90;99.90;;;10.01;100.00;98602.53;5028887;28;20207;-72
2022/04/07 00:55:59;;;;;;;0.20;0.20;;;;;;;9.85;100.00;98596.66;5003404;28;20570;-72
2022/04/07 00:58:29;;;;;;;0.10;0.10;;;9.90;99.90;;;9.94;100.00;98611.47;5005850;28;20212;-71
2022/04/07 01:00:58;;;;;;;1.10;1.10;;;;;;;9.79;100.00;98603.81;5015183;28;20723;-72
2022/04/07 01:03:26;;;;;;;0.17;0.17;;;;;;;9.72;100.00;98592.50;5015852;28;20214;-72
2022/04/07 01:05:54;;;;;;;0.10;0.10;;;;;;;9.99;100.00;98614.03;5018542;28;20208;-71
2022/04/07 01:08:23;;;;;;;0.20;0.20;;;;;;;10.04;100.00;98606.91;4993915;28;20210;-72
2022/04/07 01:10:51;;;;;;;0.10;0.10;;;;;;;10.06;100.00;98598.03;5014719;28;20246;-72
2022/04/07 01:13:19;;;;;;;0.20;0.20;;;;;;;10.12;100.00;98605.84;5008556;28;20230;-71
2022/04/07 01:15:47;;;;;;;0.10;0.10;;;;;;;10.09;100.00;98613.84;5013052;28;20553;-72
2022/04/07 01:18:15;;;;;;;0.20;0.20;;;;;;;10.01;100.00;98613.09;5012516;28;20208;-72
2022/04/07 01:20:44;;;;;;;0.10;0.10;;;;;;;9.97;100.00;98615.81;5012892;28;20208;-72
2022/04/07 01:23:12;;;;;;;0.10;0.10;;;;;;;9.81;100.00;98628.41;5017767;28;20203;-71
2022/04/07 01:25:42;;;;;;;0.10;0.10;;;9.80;99.90;;;9.74;100.00;98632.94;5008515;28;20219;-72
2022/04/07 01:28:10;;;;;;;0.10;0.10;;;;;;;9.82;100.00;98640.72;5001522;28;20208;-72
2022/04/07 01:30:38;;;;;;;0.10;0.10;;;9.80;99.90;;;9.79;100.00;98641.66;5002301;28;20227;-72
2022/04/07 01:33:06;;;;;;;0.20;0.20;;;;;;;9.77;100.00;98632.00;5003417;28;20204;-72
2022/04/07 01:35:35;;;;;;;0.10;0.10;;;;;;;9.73;100.00;98635.59;5003453;28;20232;-72
2022/04/07 01:38:03;;;;;;;0.20;0.20;;;;;;;9.72;100.00;98634.72;5011255;28;20652;-72
2022/04/07 01:40:35;;;;;;;0.20;0.20;;;9.70;99.90;;;9.73;100.00;98631.19;4999052;28;20215;-71
2022/04/07 01:43:07;;;;;;;0.10;0.10;;;9.70;99.90;;;9.77;100.00;98646.06;4997682;28;20212;-72
2022/04/07 01:45:36;;;;;;;0.10;0.10;;;;;;;9.82;100.00;98644.22;5004681;28;20224;-72
2022/04/07 01:48:04;;;;;;;0.10;0.10;;;9.80;99.90;;;9.85;100.00;98651.22;5015205;28;20204;-72
2022/04/07 01:50:33;;;;;;;0.10;0.10;;;9.80;99.90;;;9.72;100.00;98653.19;5004080;28;20223;-71
2022/04/07 01:53:01;;;;;;;0.10;0.10;;;;;;;9.65;100.00;98667.38;5017388;28;20283;-71
2022/04/07 01:55:31;;;;;;;0.20;0.20;;;9.60;99.90;;;9.60;100.00;98670.09;5014073;28;20235;-72
2022/04/07 01:57:59;;;;;;;0.10;0.10;;;;;;;9.55;100.00;98684.25;5006389;28;20204;-72
2022/04/07 02:00:27;;;;;;;0.10;0.10;;;;;;;9.52;100.00;98695.72;5015751;28;20203;-71
2022/04/07 02:02:56;;;;;;;0.20;0.20;;;;;;;9.42;100.00;98711.72;5016249;28;20215;-72
2022/04/07 02:05:24;;;;;;;0.10;0.10;;;9.00;99.90;;;9.43;100.00;98726.66;5017238;28;20216;-72
2022/04/07 02:07:52;;;;;;;0.20;0.20;;;;;;;9.40;100.00;98721.41;5018435;28;20219;-72
2022/04/07 02:10:23;;;;;;;0.10;0.10;;;;;;;9.36;100.00;98727.63;5016767;28;20231;-71
2022/04/07 02:12:51;;;;;;;0.20;0.20;;;;;;;9.39;100.00;98732.84;5018184;28;20212;-72
2022/04/07 02:15:19;;;;;;;0.10;0.10;;;;;;;9.50;100.00;98736.22;5021997;28;20235;-72
2022/04/07 02:17:47;;;;;;;0.20;0.20;;;;;;;9.58;100.00;98732.56;4998753;28;20203;-72
2022/04/07 02:20:16;;;;;;;0.20;0.20;;;;;;;9.55;100.00;98721.19;5023412;28;20218;-71
2022/04/07 02:22:44;;;;;;;0.10;0.10;;;;;;;9.57;100.00;98727.31;5006164;28;20204;-71
2022/04/07 02:25:12;;;;;;;0.20;0.20;;;;;;;9.68;100.00;98732.44;5019698;28;20227;-72
2022/04/07 02:27:42;;;;;;;0.10;0.10;;;9.50;99.90;;;9.68;100.00;98714.84;5024206;28;20191;-71
2022/04/07 02:30:13;;;;;;;0.10;0.10;;;9.60;99.90;;;9.57;100.00;98722.03;5005896;28;20231;-71
2022/04/07 02:32:42;;;;;;;0.10;0.10;;;9.60;99.90;;;9.52;100.00;98727.38;5026474;28;20219;-71
2022/04/07 02:35:13;;;;;;;0.10;0.10;;;9.50;99.90;;;9.56;100.00;98738.78;5016216;28;20224;-72
2022/04/07 02:37:42;;;;;;;0.20;0.20;;;;;;;9.60;100.00;98735.19;5027213;28;20218;-72
2022/04/07 02:40:12;;;;;;;0.10;0.10;;;9.60;99.90;;;9.55;100.00;98735.25;5023509;28;20679;-72
2022/04/07 02:42:41;;;;;;;0.20;0.20;;;;;;;9.63;100.00;98735.16;5016157;28;20212;-71
2022/04/07 02:45:09;;;;;;;0.10;0.10;;;9.60;99.90;;;9.51;100.00;98741.47;5018692;28;20235;-72
2022/04/07 02:47:38;;;;;;;0.10;0.10;;;;;;;9.47;100.00;98741.53;5022334;28;20211;-72
2022/04/07 02:50:07;;;;;;;0.20;0.20;;;9.50;99.90;;;9.57;100.00;98738.75;5023196;28;20240;-72
2022/04/07 02:52:35;;;;;;;0.10;0.10;;;;;;;9.59;100.00;98741.38;5022098;28;20204;-72
2022/04/07 02:55:04;;;;;;;0.10;0.10;;;9.50;99.90;;;9.55;100.00;98732.63;5013153;28;20220;-72
2022/04/07 02:57:33;;;;;;;0.10;0.10;;;;;;;9.62;100.00;98736.06;5012819;28;20242;-72
2022/04/07 03:00:03;;;;;;;0.10;0.10;;;;;;;9.66;100.00;98727.19;5015382;28;20215;-72
2022/04/07 03:02:31;;;;;;;0.20;0.20;;;;;;;9.71;100.00;98721.84;5019389;28;20455;-72
2022/04/07 03:05:00;;;;;;;0.10;0.10;;;;;;;9.70;100.00;98715.69;5016653;28;20223;-72
2022/04/07 03:07:28;;;;;;;0.10;0.10;;;;;;;9.75;100.00;98703.28;5018467;28;20200;-72
2022/04/07 03:09:56;;;;;;;0.10;0.10;;;;;;;9.76;100.00;98696.25;4989125;28;20206;-72
2022/04/07 03:12:24;;;;;;;0.10;0.10;;;;;;;10.00;100.00;98693.22;5019689;28;20199;-72
2022/04/07 03:14:53;;;;;;;0.10;0.10;;;;;;;9.99;100.00;98680.03;5015930;28;20231;-72
2022/04/07 03:17:21;;;;;;;0.10;0.10;;;;;;;9.86;100.00;98671.44;5021645;28;20199;-72
2022/04/07 03:19:49;;;;;;;0.10;0.10;;;;;;;9.97;100.00;98653.66;5021888;28;20215;-72
2022/04/07 03:22:19;;;;;;;0.20;0.20;;;;;;;9.97;100.00;98632.53;5031104;28;20215;-72
2022/04/07 03:24:47;;;;;;;0.10;0.10;;;;;;;9.95;100.00;98637.84;5021419;28;20734;-72
2022/04/07 03:27:15;;;;;;;0.10;0.10;;;;;;;10.02;100.00;98624.53;4997172;28;20196;-72
2022/04/07 03:29:44;;;;;;;0.10;0.10;;;;;;;10.03;100.00;98610.44;5014106;28;20230;-72
2022/04/07 03:32:12;;;;;;;0.20;0.20;;;;;;;10.04;100.00;98617.47;5018997;28;20223;-72
2022/04/07 03:34:40;;;;;;;0.15;0.15;;;10.20;99.90;;;10.00;100.00;98600.81;5014435;28;20216;-72
2022/04/07 03:37:09;;;;;;;0.10;0.10;;;;;;;9.95;100.00;98605.28;5014515;28;20207;-72
2022/04/07 03:39:37;;;;;;;0.17;0.17;;;;;;;10.02;100.00;98598.13;5013521;28;20192;-72
2022/04/07 03:42:06;;;;;;;0.10;0.10;;;10.00;99.90;;;9.97;100.00;98602.63;5019122;28;20207;-72
2022/04/07 03:44:34;;;;;;;0.10;0.10;;;;;;;9.98;100.00;98601.72;5023173;28;20227;-72
2022/04/07 03:47:03;;;;;;;0.13;0.13;;;;;;;10.01;100.00;98605.19;5022860;28;20202;-72
2022/04/07 03:49:31;;;;;;;0.20;0.20;;;;;;;10.06;100.00;98587.47;5029102;28;20203;-72
2022/04/07 03:51:59;;;;;;;0.10;0.10;;;;;;;10.16;100.00;98586.41;5012080;28;20227;-72
2022/04/07 03:54:28;;;;;;;0.10;0.10;;;;;;;10.06;100.00;98581.34;5019213;28;20228;-72
2022/04/07 03:56:56;;;;;;;0.10;0.10;;;;;;;10.04;100.00;98593.69;5022498;28;20582;-72
2022/04/07 03:59:25;;;;;;;0.10;0.10;;;;;;;10.00;100.00;98586.72;5019189;28;20200;-72
2022/04/07 04:01:54;;;;;;;0.20;0.20;;;;;;;9.97;100.00;98594.69;5022334;28;20211;-72
2022/04/07 04:04:23;;;;;;;0.20;0.20;;;;;;;9.91;100.00;98603.59;5014448;28;20223;-72
2022/04/07 04:06:51;;;;;;;0.10;0.10;;;;;;;9.80;100.00;98603.78;5039861;23;20227;-76
2022/04/07 04:09:19;;;;;;;0.10;0.10;;;;;;;9.75;100.00;98613.56;4996812;28;20231;-77
2022/04/07 04:11:48;;;;;;;0.10;0.10;;;;;;;9.68;100.00;98625.09;5010115;28;20239;-76
2022/04/07 04:14:17;;;;;;;0.10;0.10;;;;;;;9.77;100.00;98646.06;5012573;28;20223;-76
2022/04/07 04:16:45;;;;;;;0.20;0.20;;;;;;;9.78;100.00;98641.66;5006568;28;20216;-76
2022/04/07 04:19:13;;;;;;;0.10;0.10;;;;;;;9.71;100.00;98645.31;4981027;28;20653;-77
2022/04/07 04:21:42;;;;;;;0.10;0.10;;;;;;;9.63;100.00;98646.28;5002367;28;20411;-78
2022/04/07 04:24:11;;;;;;;0.10;0.10;;;;;;;9.63;100.00;98661.25;4993143;28;20243;-75
2022/04/07 04:26:39;;;;;;;0.10;0.10;;;;;;;9.61;100.00;98656.00;4997103;28;20236;-76
2022/04/07 04:29:07;;;;;;;0.17;0.17;;;;;;;9.57;100.00;98672.78;4992396;28;20205;-75
2022/04/07 04:31:35;;;;;;;0.10;0.10;;;;;;;9.53;100.00;98670.22;4992110;28;20225;-75
2022/04/07 04:34:04;;;;;;;0.10;0.10;;;;;;;9.55;100.00;98673.69;4992519;28;20232;-75
2022/04/07 04:36:34;;;;;;;0.10;0.10;;;;;;;9.53;100.00;98679.00;4988938;28;20201;-75
2022/04/07 04:39:03;;;;;;;0.10;0.10;;;9.50;99.90;;;9.51;100.00;98682.56;4986100;28;20209;-78
2022/04/07 04:41:31;;;;;;;0.20;0.20;;;;;;;9.42;100.00;98690.59;4992388;28;20227;-77
2022/04/07 04:44:00;;;;;;;0.10;0.10;;;;;;;9.37;100.00;98690.66;4992619;28;20709;-76
2022/04/07 04:46:28;;;;;;;0.10;0.10;;;;;;;9.36;100.00;98703.88;4975234;28;20201;-76
2022/04/07 04:48:58;;;;;;;0.10;0.10;;;;;;;9.34;100.00;98713.59;4992344;28;20205;-77
2022/04/07 04:51:26;;;;;;;0.10;0.10;;;;;;;9.36;100.00;98724.97;4992804;28;20212;-78
2022/04/07 04:53:55;;;;;;;0.10;0.10;;;;;;;9.41;100.00;98721.38;4984180;28;20217;-77
2022/04/07 04:56:23;;;;;;;0.10;0.10;;;;;;;9.51;100.00;98706.31;4968356;28;20211;-76
2022/04/07 04:58:51;;;;;;;0.10;0.10;;;;;;;9.48;100.00;98698.44;4985964;28;20205;-75
2022/04/07 05:01:20;;;;;;;0.10;0.10;;;;;;;9.56;100.00;98697.41;4986160;28;20212;-76
2022/04/07 05:03:48;;;;;;;0.10;0.10;;;;;;;9.62;100.00;98672.72;4989685;28;20239;-76
2022/04/07 05:06:16;;;;;;;0.10;0.10;;;;;;;9.69;100.00;98661.16;4970503;28;20227;-76
2022/04/07 05:08:45;;;;;;;0.10;0.10;;;;;;;9.69;100.00;98650.59;4983952;28;20672;-75
2022/04/07 05:11:13;;;;;;;0.10;0.10;;;;;;;9.71;100.00;98655.88;4990533;28;20224;-76
2022/04/07 05:13:41;;;;;;;0.08;0.08;;;;;;;9.63;100.00;98648.94;4987684;28;20225;-77
2022/04/07 05:16:15;;;;;;;0.20;0.20;;;;;;;9.57;100.00;98654.31;4996414;28;20207;-76
2022/04/07 05:18:48;;;;;;;0.10;0.10;;;;;;;9.63;100.00;98650.69;4974632;28;20200;-76
2022/04/07 05:21:17;;;;;;;0.10;0.10;;;;;;;9.64;100.00;98649.81;4986091;28;20219;-76
2022/04/07 05:23:45;;;;;;;0.10;0.10;;;;;;;9.79;100.00;98643.41;4988536;28;20232;-76
2022/04/07 05:26:14;;;;;;;0.10;0.10;;;;;;;9.87;100.00;98605.44;4989698;28;20204;-77
2022/04/07 05:28:43;;;;;;;0.10;0.10;;;9.80;99.90;;;10.00;100.00;98590.25;4990846;28;20216;-76
2022/04/07 05:31:11;;;;;;;0.10;0.10;;;;;;;10.14;100.00;98558.28;4987472;28;20613;-75
2022/04/07 05:33:40;;;;;;;0.10;0.10;;;;;;;10.14;100.00;98543.31;4984573;28;20233;-76
2022/04/07 05:36:08;;;;;;;0.10;0.10;;;;;;;10.08;100.00;98524.06;4962606;28;20205;-77
2022/04/07 05:38:36;;;;;;;0.10;0.10;;;;;;;10.10;100.00;98511.72;4985065;28;20205;-77
2022/04/07 05:41:05;;;;;;;0.10;0.10;;;;;;;10.18;100.00;98509.78;5000157;28;20231;-76
2022/04/07 05:43:33;;;;;;;0.10;0.10;;;;;;;10.14;100.00;98495.78;4990859;28;20600;-76
2022/04/07 05:46:02;;;;;;;0.10;0.10;;;;;;;10.20;100.00;98494.81;4974176;28;20204;-76
2022/04/07 05:48:30;;;;;;;0.10;0.10;;;;;;;10.18;100.00;98494.81;4990572;28;20216;-76
2022/04/07 05:50:59;;;;;;;0.10;0.10;;;;;;;10.12;100.00;98486.13;4991230;28;20204;-76
2022/04/07 05:53:28;;;;;;;0.20;0.20;;;;;;;10.18;100.00;98481.59;4990723;28;20232;-76
2022/04/07 05:55:59;;;;;;;0.10;0.10;;;10.10;99.90;;;10.11;100.00;98493.19;4991314;28;20212;-76
2022/04/07 05:58:28;;;;;;;0.10;0.10;;;;;;;10.12;100.00;98497.56;4965002;28;20216;-77
2022/04/07 06:00:56;;;;;;;0.10;0.10;;;;;;;10.07;100.00;98496.81;4994155;28;20215;-75
2022/04/07 06:03:25;;;;;;;0.10;0.10;;;;;;;10.13;100.00;98498.44;4999028;28;20213;-76
2022/04/07 06:05:53;;;;;;;0.10;0.10;;;;;;;10.03;100.00;98483.69;4990985;28;20212;-76
2022/04/07 06:08:21;;;;;;;0.10;0.10;;;;;;;9.97;100.00;98494.38;4990199;28;20204;-76
2022/04/07 06:10:50;;;;;;;0.10;0.10;;;;;;;9.92;100.00;98494.47;4990555;28;20204;-76
2022/04/07 06:13:18;;;;;;;0.20;0.20;;;;;;;9.83;100.00;98497.28;4981188;28;20236;-76
2022/04/07 06:15:47;;;;;;;0.10;0.10;;;;;;;9.80;100.00;98490.28;4989987;28;20220;-76
2022/04/07 06:18:16;;;;;;;0.10;0.10;;;;;;;9.75;100.00;98502.69;4977458;28;20208;-76
2022/04/07 06:20:47;;;;;;;0.20;0.20;;;;;;;9.67;100.00;98504.59;4998839;28;20196;-76
2022/04/07 06:23:15;;;;;;;0.20;0.20;;;;;;;9.68;100.00;98511.63;4990109;28;20201;-77
2022/04/07 06:25:43;;;;;;;0.10;0.10;;;;;;;9.69;100.00;98523.06;4989650;28;20216;-76
2022/04/07 06:28:12;;;;;;;0.20;0.20;;;;;;;9.67;100.00;98538.91;4990478;28;20204;-76
2022/04/07 06:30:40;;;;;;;0.20;0.20;;;;;;;9.68;100.00;98538.03;4972299;28;20685;-77
2022/04/07 06:33:08;;;;;;;0.20;0.20;;;;;;;9.69;100.00;98545.03;4986427;28;20236;-76
2022/04/07 06:35:37;;;;;;;0.10;0.10;;;;;;;9.69;100.00;98555.59;4981184;28;20232;-76
2022/04/07 06:38:05;;;;;;;0.20;0.20;;;;;;;9.67;100.00;98551.25;4979787;28;20235;-75
2022/04/07 06:40:33;;;;;;;0.20;0.20;;;9.70;99.90;;;9.62;100.00;98549.56;4980754;28;20221;-75
2022/04/07 06:43:01;;;;;;;0.20;0.20;;;;;;;9.55;100.00;98568.16;4987768;28;20216;-74
2022/04/07 06:45:30;;;;;;;0.20;0.20;;;;;;;9.50;100.00;98567.34;4967928;28;20225;-74
2022/04/07 06:47:58;;;;;;;0.10;0.10;;;;;;;9.47;100.00;98583.25;4982108;28;20720;-77
2022/04/07 06:50:31;;;;;;;0.10;0.10;;;;;;;9.39;100.00;98601.81;4980030;28;20216;-77
2022/04/07 06:53:00;;;;;;;0.10;0.10;;;;;;;9.36;100.00;98603.66;4978618;28;20225;-78
2022/04/07 06:55:29;;;;;;;0.10;0.10;;;;;;;9.36;100.00;98615.06;4966506;28;20240;-76
2022/04/07 06:58:06;;;;;;;0.20;0.20;;;9.50;99.90;;;9.36;100.00;98614.19;4966860;28;20213;-77
2022/04/07 07:00:44;;;;;;;0.10;0.10;;;9.50;99.90;;;9.33;100.00;98627.44;4979654;28;20212;-76
2022/04/07 07:03:15;;;;;;;0.10;0.10;;;9.40;99.90;;;9.30;100.00;98626.56;4978650;28;20235;-76
2022/04/07 07:05:46;;;;;;;0.10;0.10;;;;;;;9.28;100.00;98631.00;4977074;28;20209;-77
2022/04/07 07:08:18;;;;;;;0.10;0.10;;;9.40;99.90;;;9.29;100.00;98630.09;4917021;28;1365917;-78
2022/04/07 07:10:49;;;;;;;0.20;0.20;;;9.40;99.90;;;9.31;100.00;98640.63;4985870;28;20204;-77
2022/04/07 07:13:21;;;;;;;0.10;0.10;;;12.00;99.90;;;9.33;100.00;98648.53;4982926;28;20656;-77
2022/04/07 07:15:54;;;;;;;0.20;0.20;;;9.40;99.90;;;9.33;100.00;98635.34;4985630;28;20213;-77
2022/04/07 07:18:23;;;;;;;0.10;0.10;;;;;;;9.38;100.00;98639.66;4984814;28;20209;-76
2022/04/07 07:20:51;;;;;;;0.10;0.10;;;;;;;9.38;100.00;98641.41;4986055;28;20208;-77
2022/04/07 07:23:20;;;;;;;0.10;0.10;;;;;;;9.38;100.00;98639.66;4982358;28;20576;-77
2022/04/07 07:25:48;;;;;;;0.20;0.20;;;;;;;9.40;100.00;98642.28;4964956;28;20209;-77
2022/04/07 07:28:17;;;;;;;0.20;0.20;;;;;;;9.44;100.00;98636.91;4970452;28;20204;-77
2022/04/07 07:30:45;;;;;;;0.10;0.10;;;;;;;9.46;100.00;98634.25;4986873;28;20216;-77
2022/04/07 07:33:13;;;;;;;0.10;0.10;;;;;;;9.46;100.00;98624.59;4986128;28;20248;-77
2022/04/07 07:35:46;;;;;;;0.20;0.20;;;;;;;9.48;100.00;98620.16;4987045;28;20232;-77
2022/04/07 07:38:15;;;;;;;0.20;0.20;;;;;;;9.52;100.00;98628.88;4987160;28;20219;-77
2022/04/07 07:40:43;;;;;;;0.10;0.10;;;9.50;99.90;;;9.56;100.00;98626.19;4987034;28;20220;-77
2022/04/07 07:43:12;;;;;;;0.20;0.20;;;;;;;9.59;100.00;98618.22;4984968;28;20216;-76
2022/04/07 07:45:55;;;;;;;0.10;0.10;;;;;;;9.58;100.00;98619.13;4986591;28;20208;-76
2022/04/07 07:48:25;;;;;;;0.10;0.10;;;9.60;99.90;;;9.58;100.00;98631.44;4983538;28;20585;-76
2022/04/07 07:50:55;;;;;;;0.10;0.10;;;9.60;99.90;;;9.62;100.00;98625.22;4986195;28;20213;-77
2022/04/07 07:53:24;;;;;;;0.10;0.10;;;;;;;9.67;100.00;98633.91;4985429;28;20985;-77
2022/04/07 07:55:54;;;;;;;0.10;0.10;;;;;;;9.71;100.00;98637.38;4987163;28;20209;-78
2022/04/07 07:58:25;;;;;;;0.20;0.20;;;;;;;9.77;100.00;98645.19;4987696;28;20211;-77
2022/04/07 08:00:54;;;;;;;0.20;0.20;;;;;;;9.78;100.00;98641.66;4986048;28;20212;-77
2022/04/07 08:03:23;;;;;;;0.10;0.10;;;;;;;9.74;100.00;98643.47;4970547;28;20223;-78
2022/04/07 08:05:51;;;;;;;0.20;0.20;;;;;;;9.74;100.00;98646.13;4986494;28;20216;-77
2022/04/07 08:08:20;;;;;;;0.20;0.20;;;;;;;9.83;100.00;98643.34;4989781;28;20201;-78
2022/04/07 08:10:49;;;;;;;0.10;0.10;;;;;;;9.84;100.00;98642.44;4985358;28;20220;-77
2022/04/07 08:13:17;;;;;;;0.20;0.20;;;;;;;9.84;100.00;98649.47;4986777;28;20225;-78
2022/04/07 08:15:46;;;;;;;0.15;0.15;;;;;;;9.86;100.00;98648.56;4986735;28;20212;-78
2022/04/07 08:18:14;;;;;;;0.10;0.10;;;;;;;9.92;100.00;98656.38;4969993;28;20208;-78
2022/04/07 08:20:43;;;;;;;0.20;0.20;;;;;;;9.94;100.00;98644.03;4969268;28;20216;-78
2022/04/07 08:23:12;;;;;;;0.20;0.20;;;;;;;10.02;100.00;98658.88;4987874;28;20271;-78
2022/04/07 08:25:41;;;;;;;0.10;0.10;;;;;;;10.00;100.00;98650.09;4972557;28;20231;-78
2022/04/07 08:28:10;;;;;;;0.10;0.10;;;10.00;99.90;;;10.01;100.00;98654.47;4988997;28;20582;-78
2022/04/07 08:30:39;;;;;;;0.10;0.10;;;;;;;9.92;100.00;98650.22;4973445;28;20212;-79
2022/04/07 08:33:07;;;;;;;0.45;0.45;;;;;;;9.88;100.00;98640.63;4983717;28;20232;-78
2022/04/07 08:35:35;;;;;;;0.10;0.10;;;;;;;9.94;100.00;98649.31;4988249;28;20692;-78
2022/04/07 08:38:04;;;;;;;0.10;0.10;;;;;;;10.03;100.00;98660.59;4989280;28;20205;-77
2022/04/07 08:40:36;;;;;;;0.10;0.10;;;10.10;99.90;;;10.10;100.00;98652.56;4984086;28;20209;-78
2022/04/07 08:43:04;;;;;;;0.10;0.10;;;;;;;10.13;100.00;98663.06;4967520;28;20582;-77
2022/04/07 08:45:34;;;;;;;0.20;0.20;;;10.10;99.90;;;10.16;100.00;98644.53;4969340;28;20224;-77
2022/04/07 08:48:03;;;;;;;0.10;0.10;;;10.20;99.90;;;10.21;100.00;98647.97;4965072;28;20240;-77
2022/04/07 08:50:34;;;;;;;0.10;0.10;;;10.20;99.90;;;10.30;100.00;98638.16;4986458;28;20212;-77
2022/04/07 08:53:02;;;;;;;0.20;0.20;;;;;;;10.42;100.00;98652.03;4984603;28;20238;-77
2022/04/07 08:55:30;;;;;;;0.28;0.28;;;;;;;10.38;100.00;98647.69;4986181;28;20244;-77
2022/04/07 08:57:59;;;;;;;0.10;0.10;;;;;;;10.44;100.00;98647.59;4966952;28;20216;-76
2022/04/07 09:00:28;;;;;;;0.20;0.20;;;;;;;10.47;100.00;98636.97;4985495;28;20216;-76
2022/04/07 09:02:56;;;;;;;0.20;0.20;;;;;;;10.76;100.00;98640.81;4982880;28;20201;-77
2022/04/07 09:05:31;;;;;;;0.10;0.10;;;10.70;99.90;;;10.97;100.00;98637.72;4968494;28;20239;-77
2022/04/07 09:07:59;;;;;;;0.20;0.20;;;;;;;10.95;100.00;98621.00;4985744;28;20224;-77
2022/04/07 09:10:28;;;;;;;0.20;0.20;;;;;;;10.95;100.00;98593.69;4980004;28;20204;-76
2022/04/07 09:13:04;;;;;;;0.20;0.20;;;10.90;99.90;;;10.96;100.00;98575.13;4984685;28;20205;-77
2022/04/07 09:15:34;;;;;;;0.30;0.30;;;;;;;10.94;100.00;98563.72;4986021;28;20243;-76
2022/04/07 09:18:04;;;;;;;0.35;0.35;;;;;;;11.00;100.00;98575.94;4983038;28;20209;-76
2022/04/07 09:20:42;;;;;;;0.20;0.20;;;11.00;99.90;;;11.02;100.00;98569.72;4963935;28;20201;-76
2022/04/07 09:23:12;;;;;;;0.10;0.10;;;10.90;99.90;;;11.05;100.00;98555.56;4981022;28;20212;-77
2022/04/07 09:25:49;;;;;;;0.10;0.10;;;10.90;99.90;;;11.02;100.00;98513.31;4983975;28;20239;-77
2022/04/07 09:28:30;;;;;;;0.20;0.20;;;11.00;99.90;;;11.06;100.00;98497.31;4980962;28;20200;-77
2022/04/07 09:31:00;;;;;;;0.20;0.20;;;11.10;99.90;;;11.25;100.00;98510.09;4986257;28;20222;-76
2022/04/07 09:33:29;;;;;;;0.20;0.20;;;11.20;99.90;;;11.26;100.00;98501.25;4997150;28;20229;-77
2022/04/07 09:36:10;;;;;;;0.10;0.10;;;11.00;99.90;;;11.00;100.00;98472.81;4981327;28;20219;-77
2022/04/07 09:38:39;;;;;;;0.32;0.32;;;11.00;99.90;;;10.96;100.00;98469.34;4972927;28;20205;-76
2022/04/07 09:41:12;;;;;;;0.10;0.10;;;11.10;99.90;;;11.03;100.00;98459.50;4984035;28;20208;-77
2022/04/07 09:43:46;;;;;;;0.20;0.20;;;10.30;99.90;;;11.34;100.00;98462.25;4980663;28;20228;-76
2022/04/07 09:46:20;;;;;;;0.20;0.20;;;11.30;99.90;;;11.47;100.00;98471.63;4979958;28;20217;-76
2022/04/07 09:49:14;;;;;;;0.10;0.10;;;11.40;99.90;;;11.45;100.00;98476.94;4982080;28;20219;-76
2022/04/07 09:51:50;;;;;;;0.10;0.10;;;11.40;99.90;;;11.35;100.00;98459.56;4960856;28;20224;-76
2022/04/07 09:54:19;;;;;;;0.13;0.13;;;;;;;11.32;100.00;98464.06;4983931;28;20724;-77
2022/04/07 09:56:48;;;;;;;0.17;0.17;;;11.30;99.90;;;11.35;100.00;98469.28;4980681;28;20217;-75
2022/04/07 09:59:19;;;;;;;0.10;0.10;;;;;;;11.52;100.00;98452.06;4983718;28;20205;-76
2022/04/07 10:01:50;;;;;;;0.10;0.10;;;;;;;11.80;100.00;98469.91;4989689;28;20212;-76
2022/04/07 10:04:22;;;;;;;0.10;0.10;;;11.70;99.90;;;11.76;100.00;98434.69;4976476;28;20220;-75
2022/04/07 10:06:54;;;;;;;0.10;0.10;;;11.70;99.90;;;11.80;100.00;98422.25;4971113;28;20228;-77
2022/04/07 10:09:23;;;;;;;0.10;0.10;;;;;;;12.04;100.00;98408.31;4987781;28;20235;-77
2022/04/07 10:11:52;;;;;;;0.10;0.10;;;11.90;99.90;;;12.15;100.00;98403.56;4978603;28;20205;-77
2022/04/07 10:14:21;;;;;;;0.10;0.10;;;;;;;12.20;100.00;98394.59;4963271;28;20231;-78
2022/04/07 10:16:50;;;;;;;0.10;0.10;;;;;;;12.52;100.00;98404.22;4977799;28;20247;-76
2022/04/07 10:19:53;;;;;;;2.25;1.65;;;12.30;99.90;;;12.43;100.00;98384.16;4982571;28;20215;-77
2022/04/07 10:22:46;;;;;;;0.10;0.10;;;12.70;99.90;;;12.63;100.00;98371.16;4972854;28;20231;-77
2022/04/07 10:25:15;;;;;;;0.25;0.25;;;12.40;99.90;;;12.32;100.00;98343.88;4965988;28;20755;-77
2022/04/07 10:27:57;;;;;;;0.10;0.10;;;12.20;99.90;;;12.01;100.00;98322.75;4971898;28;20208;-77
2022/04/07 10:30:32;;;;;;;0.10;0.10;;;12.00;99.90;;;11.87;100.00;98309.94;4984023;28;20227;-76
2022/04/07 10:33:01;;;;;;;0.10;0.10;;;;;;;11.95;100.00;98323.81;5003839;28;20254;-76
2022/04/07 10:35:30;;;;;;;0.10;0.10;;;12.00;99.90;;;12.07;100.00;98325.22;4976728;28;20240;-80
2022/04/07 10:38:00;;;;;;;0.10;0.10;;;12.10;99.90;;;12.39;100.00;98356.03;4988563;28;20220;-80
2022/04/07 10:40:49;;;;;;;0.10;0.10;;;12.20;99.90;;;12.09;100.00;98324.25;4984764;28;20224;-80
2022/04/07 10:43:25;;;;;;;0.10;0.10;;;12.30;99.90;;;11.97;100.00;98315.81;4984977;28;20213;-79
2022/04/07 10:46:05;;;;;;;0.20;0.20;;;11.90;99.90;;;12.17;100.00;98340.78;4992641;28;20227;-80
2022/04/07 10:48:45;;;;;;;0.20;0.20;;;12.20;99.90;;;12.33;100.00;98335.00;4985761;28;20205;-76
2022/04/07 10:51:13;;;;;;;0.20;0.20;;;;;;;12.33;100.00;98351.78;4986045;28;20547;-77
2022/04/07 10:53:53;;;;;;;0.20;0.20;;;12.20;99.90;;;12.28;100.00;98339.59;4990429;28;20636;-77
2022/04/07 10:56:34;;;;;;;0.10;0.10;;;12.30;99.90;;;12.31;100.00;98311.22;4991182;28;20213;-77
2022/04/07 10:59:17;;;;;;;0.10;0.10;;;12.50;99.90;;;12.25;100.00;98310.53;4993702;28;20215;-76
2022/04/07 11:02:10;;;;;;;0.47;0.47;;;12.20;99.90;;;12.20;100.00;98302.72;4987528;28;20208;-76
2022/04/07 11:05:08;;;;;;;0.10;0.10;;;12.20;99.90;;;12.16;100.00;98325.81;4982183;28;20231;-77
2022/04/07 11:07:51;;;;;;;0.20;0.20;;;12.10;99.90;;;11.96;100.00;98293.78;4987869;28;20220;-77
2022/04/07 11:10:45;;;;;;;0.10;0.10;;;12.00;99.90;;;11.99;100.00;98288.38;4987826;28;20211;-76
2022/04/07 11:13:14;;;;;;;0.10;0.10;;;;;;;11.91;100.00;98263.03;4973380;28;20205;-78
2022/04/07 11:15:57;;;;;;;0.10;0.10;;;11.80;99.90;;;11.98;100.00;98256.63;4998471;28;20235;-78
2022/04/07 11:19:00;;;;;;;0.20;0.20;;;12.00;99.90;;;12.17;100.00;98278.97;4997259;28;20204;-77
2022/04/07 11:21:44;;;;;;;0.10;0.10;;;12.20;99.90;;;12.48;100.00;98261.16;4994067;28;20212;-77